sensor_id;sensor_type;location;lat;lon;timestamp;pressure;altitude;pressure_sealevel;temperature;humidity
46955;BME280;32708;51.212;6.788;2022-07-22T00:00:45;101550.66;;;18.42;100.00
46955;BME280;32708;51.212;6.788;2022-07-22T00:03:12;101548.44;;;18.48;100.00
46955;BME280;32708;51.212;6.788;2022-07-22T00:05:38;101552.97;;;18.40;100.00
46955;BME280;32708;51.212;6.788;2022-07-22T00:08:04;101546.94;;;18.23;100.00
46955;BME280;32708;51.212;6.788;2022-07-22T00:10:30;101544.59;;;17.97;100.00
46955;BME280;32708;51.212;6.788;2022-07-22T00:12:56;101549.63;;;18.07;100.00
46955;BME280;32708;51.212;6.788;2022-07-22T00:15:23;101555.09;;;18.31;100.00
46955;BME280;32708;51.212;6.788;2022-07-22T00:17:49;101548.19;;;18.25;100.00
46955;BME280;32708;51.212;6.788;2022-07-22T00:20:15;101556.63;;;18.17;100.00
46955;BME280;32708;51.212;6.788;2022-07-22T00:22:42;101549.25;;;18.21;100.00
46955;BME280;32708;51.212;6.788;2022-07-22T00:25:08;101552.28;;;18.43;100.00
46955;BME280;32708;51.212;6.788;2022-07-22T00:27:35;101552.59;;;18.42;100.00
46955;BME280;32708;51.212;6.788;2022-07-22T00:30:01;101546.34;;;18.29;100.00
46955;BME280;32708;51.212;6.788;2022-07-22T00:32:27;101550.03;;;18.49;100.00
46955;BME280;32708;51.212;6.788;2022-07-22T00:34:53;101553.16;;;18.20;100.00
46955;BME280;32708;51.212;6.788;2022-07-22T00:37:19;101547.81;;;18.55;100.00
46955;BME280;32708;51.212;6.788;2022-07-22T00:39:46;101545.97;;;18.59;100.00
46955;BME280;32708;51.212;6.788;2022-07-22T00:42:14;101550.25;;;18.28;100.00
46955;BME280;32708;51.212;6.788;2022-07-22T00:44:41;101547.81;;;17.99;100.00
46955;BME280;32708;51.212;6.788;2022-07-22T00:47:08;101553.19;;;17.79;100.00
46955;BME280;32708;51.212;6.788;2022-07-22T00:49:34;101558.84;;;18.11;100.00
46955;BME280;32708;51.212;6.788;2022-07-22T00:52:00;101549.53;;;18.03;100.00
46955;BME280;32708;51.212;6.788;2022-07-22T00:54:27;101555.22;;;17.95;100.00
46955;BME280;32708;51.212;6.788;2022-07-22T00:56:55;101550.13;;;17.97;100.00
46955;BME280;32708;51.212;6.788;2022-07-22T00:59:21;101545.13;;;18.14;100.00
46955;BME280;32708;51.212;6.788;2022-07-22T01:01:47;101553.50;;;17.78;100.00
46955;BME280;32708;51.212;6.788;2022-07-22T01:04:14;101550.19;;;17.72;100.00
46955;BME280;32708;51.212;6.788;2022-07-22T01:06:41;101550.97;;;17.48;100.00
46955;BME280;32708;51.212;6.788;2022-07-22T01:09:12;101548.09;;;17.57;100.00
46955;BME280;32708;51.212;6.788;2022-07-22T01:11:40;101549.81;;;17.61;100.00
46955;BME280;32708;51.212;6.788;2022-07-22T01:14:07;101544.16;;;17.95;100.00
46955;BME280;32708;51.212;6.788;2022-07-22T01:16:33;101549.94;;;17.65;100.00
46955;BME280;32708;51.212;6.788;2022-07-22T01:18:59;101544.16;;;17.70;100.00
46955;BME280;32708;51.212;6.788;2022-07-22T01:21:25;101558.22;;;17.53;100.00
46955;BME280;32708;51.212;6.788;2022-07-22T01:23:52;101554.28;;;17.78;100.00
46955;BME280;32708;51.212;6.788;2022-07-22T01:26:19;101547.88;;;17.74;100.00
46955;BME280;32708;51.212;6.788;2022-07-22T01:28:45;101543.00;;;17.96;100.00
46955;BME280;32708;51.212;6.788;2022-07-22T01:31:12;101553.31;;;18.11;100.00
46955;BME280;32708;51.212;6.788;2022-07-22T01:33:39;101538.50;;;18.31;100.00
46955;BME280;32708;51.212;6.788;2022-07-22T01:36:06;101540.81;;;18.29;100.00
46955;BME280;32708;51.212;6.788;2022-07-22T01:38:33;101540.69;;;18.26;100.00
46955;BME280;32708;51.212;6.788;2022-07-22T01:40:59;101536.19;;;18.33;100.00
46955;BME280;32708;51.212;6.788;2022-07-22T01:43:27;101531.44;;;18.34;100.00
46955;BME280;32708;51.212;6.788;2022-07-22T01:45:54;101538.75;;;18.26;100.00
46955;BME280;32708;51.212;6.788;2022-07-22T01:48:22;101531.25;;;18.27;100.00
46955;BME280;32708;51.212;6.788;2022-07-22T01:50:49;101527.19;;;18.36;100.00
46955;BME280;32708;51.212;6.788;2022-07-22T01:53:17;101530.41;;;18.10;100.00
46955;BME280;32708;51.212;6.788;2022-07-22T01:55:45;101527.00;;;17.89;100.00
46955;BME280;32708;51.212;6.788;2022-07-22T01:58:12;101531.06;;;18.20;100.00
46955;BME280;32708;51.212;6.788;2022-07-22T02:00:39;101526.84;;;18.10;100.00
46955;BME280;32708;51.212;6.788;2022-07-22T02:03:06;101526.16;;;18.29;100.00
46955;BME280;32708;51.212;6.788;2022-07-22T02:05:33;101524.06;;;18.10;100.00
46955;BME280;32708;51.212;6.788;2022-07-22T02:08:10;101524.25;;;17.89;100.00
46955;BME280;32708;51.212;6.788;2022-07-22T02:10:55;101521.41;;;18.13;100.00
46955;BME280;32708;51.212;6.788;2022-07-22T02:13:22;101529.97;;;18.08;100.00
46955;BME280;32708;51.212;6.788;2022-07-22T02:15:48;101524.44;;;18.08;100.00
46955;BME280;32708;51.212;6.788;2022-07-22T02:18:17;101524.25;;;17.89;100.00
46955;BME280;32708;51.212;6.788;2022-07-22T02:20:46;101522.88;;;17.83;100.00
46955;BME280;32708;51.212;6.788;2022-07-22T02:23:14;101528.03;;;17.97;100.00
46955;BME280;32708;51.212;6.788;2022-07-22T02:25:42;101521.78;;;18.00;100.00
46955;BME280;32708;51.212;6.788;2022-07-22T02:28:08;101512.56;;;18.08;100.00
46955;BME280;32708;51.212;6.788;2022-07-22T02:30:36;101527.38;;;17.87;100.00
46955;BME280;32708;51.212;6.788;2022-07-22T02:33:03;101514.72;;;17.86;100.00
46955;BME280;32708;51.212;6.788;2022-07-22T02:35:29;101513.97;;;18.02;100.00
46955;BME280;32708;51.212;6.788;2022-07-22T02:37:56;101508.63;;;17.81;100.00
46955;BME280;32708;51.212;6.788;2022-07-22T02:40:22;101519.16;;;17.91;100.00
46955;BME280;32708;51.212;6.788;2022-07-22T02:42:48;101511.94;;;17.86;100.00
46955;BME280;32708;51.212;6.788;2022-07-22T02:45:15;101512.00;;;18.02;100.00
46955;BME280;32708;51.212;6.788;2022-07-22T02:47:52;101512.97;;;17.94;100.00
46955;BME280;32708;51.212;6.788;2022-07-22T02:50:21;101518.38;;;17.91;100.00
46955;BME280;32708;51.212;6.788;2022-07-22T02:52:48;101532.19;;;17.78;100.00
46955;BME280;32708;51.212;6.788;2022-07-22T02:55:17;101516.53;;;17.95;100.00
46955;BME280;32708;51.212;6.788;2022-07-22T02:57:43;101527.13;;;17.68;100.00
46955;BME280;32708;51.212;6.788;2022-07-22T03:00:13;101526.88;;;17.85;100.00
46955;BME280;32708;51.212;6.788;2022-07-22T03:02:40;101535.88;;;17.70;100.00
46955;BME280;32708;51.212;6.788;2022-07-22T03:05:07;101531.38;;;17.90;100.00
46955;BME280;32708;51.212;6.788;2022-07-22T03:07:38;101531.91;;;18.08;100.00
46955;BME280;32708;51.212;6.788;2022-07-22T03:10:07;101530.03;;;18.12;100.00
46955;BME280;32708;51.212;6.788;2022-07-22T03:12:34;101526.59;;;18.15;100.00
46955;BME280;32708;51.212;6.788;2022-07-22T03:15:00;101524.47;;;18.24;100.00
46955;BME280;32708;51.212;6.788;2022-07-22T03:17:28;101532.06;;;18.27;100.00
46955;BME280;32708;51.212;6.788;2022-07-22T03:19:54;101530.16;;;18.15;100.00
46955;BME280;32708;51.212;6.788;2022-07-22T03:22:20;101534.09;;;18.14;100.00
46955;BME280;32708;51.212;6.788;2022-07-22T03:24:46;101535.09;;;18.22;100.00
46955;BME280;32708;51.212;6.788;2022-07-22T03:27:12;101523.44;;;17.88;100.00
46955;BME280;32708;51.212;6.788;2022-07-22T03:29:38;101526.88;;;17.98;100.00
46955;BME280;32708;51.212;6.788;2022-07-22T03:32:05;101525.91;;;17.53;100.00
46955;BME280;32708;51.212;6.788;2022-07-22T03:34:38;101524.06;;;17.57;100.00
46955;BME280;32708;51.212;6.788;2022-07-22T03:37:07;101527.13;;;17.68;100.00
46955;BME280;32708;51.212;6.788;2022-07-22T03:39:33;101529.22;;;17.71;100.00
46955;BME280;32708;51.212;6.788;2022-07-22T03:42:00;101525.97;;;17.69;100.00
46955;BME280;32708;51.212;6.788;2022-07-22T03:44:27;101526.91;;;17.61;100.00
46955;BME280;32708;51.212;6.788;2022-07-22T03:46:56;101524.84;;;17.82;100.00
46955;BME280;32708;51.212;6.788;2022-07-22T03:49:23;101526.41;;;17.96;100.00
46955;BME280;32708;51.212;6.788;2022-07-22T03:51:49;101520.69;;;17.88;100.00
46955;BME280;32708;51.212;6.788;2022-07-22T03:54:15;101526.66;;;17.91;100.00
46955;BME280;32708;51.212;6.788;2022-07-22T03:56:42;101526.97;;;18.01;100.00
46955;BME280;32708;51.212;6.788;2022-07-22T03:59:08;101530.97;;;17.51;100.00
46955;BME280;32708;51.212;6.788;2022-07-22T04:01:35;101527.50;;;17.54;100.00
46955;BME280;32708;51.212;6.788;2022-07-22T04:04:01;101519.66;;;17.93;100.00
46955;BME280;32708;51.212;6.788;2022-07-22T04:06:32;101514.06;;;18.05;100.00
46955;BME280;32708;51.212;6.788;2022-07-22T04:09:04;101517.38;;;18.11;100.00
46955;BME280;32708;51.212;6.788;2022-07-22T04:11:32;101513.06;;;18.26;100.00
46955;BME280;32708;51.212;6.788;2022-07-22T04:13:58;101521.06;;;17.75;100.00
46955;BME280;32708;51.212;6.788;2022-07-22T04:16:25;101516.63;;;17.98;100.00
46955;BME280;32708;51.212;6.788;2022-07-22T04:18:58;101518.38;;;17.78;100.00
46955;BME280;32708;51.212;6.788;2022-07-22T04:21:40;101519.81;;;17.72;100.00
46955;BME280;32708;51.212;6.788;2022-07-22T04:24:09;101513.78;;;17.70;100.00
46955;BME280;32708;51.212;6.788;2022-07-22T04:26:36;101514.38;;;17.64;100.00
46955;BME280;32708;51.212;6.788;2022-07-22T04:29:05;101513.38;;;17.19;100.00
46955;BME280;32708;51.212;6.788;2022-07-22T04:31:31;101520.03;;;17.18;100.00
46955;BME280;32708;51.212;6.788;2022-07-22T04:34:09;101514.97;;;17.32;100.00
46955;BME280;32708;51.212;6.788;2022-07-22T04:36:35;101507.41;;;17.29;100.00
46955;BME280;32708;51.212;6.788;2022-07-22T04:39:02;101511.44;;;17.08;100.00
46955;BME280;32708;51.212;6.788;2022-07-22T04:41:30;101513.13;;;17.00;100.00
46955;BME280;32708;51.212;6.788;2022-07-22T04:43:56;101512.00;;;17.01;100.00
46955;BME280;32708;51.212;6.788;2022-07-22T04:46:24;101507.84;;;17.19;100.00
46955;BME280;32708;51.212;6.788;2022-07-22T04:48:52;101510.03;;;17.14;100.00
46955;BME280;32708;51.212;6.788;2022-07-22T04:51:19;101519.34;;;17.21;100.00
46955;BME280;32708;51.212;6.788;2022-07-22T04:53:47;101515.56;;;17.50;100.00
46955;BME280;32708;51.212;6.788;2022-07-22T04:56:15;101519.22;;;17.42;100.00
46955;BME280;32708;51.212;6.788;2022-07-22T04:58:42;101524.97;;;17.13;100.00
46955;BME280;32708;51.212;6.788;2022-07-22T05:01:08;101522.69;;;17.27;100.00
46955;BME280;32708;51.212;6.788;2022-07-22T05:03:38;101525.56;;;17.30;100.00
46955;BME280;32708;51.212;6.788;2022-07-22T05:06:05;101531.19;;;17.71;100.00
46955;BME280;32708;51.212;6.788;2022-07-22T05:08:37;101529.91;;;17.68;100.00
46955;BME280;32708;51.212;6.788;2022-07-22T05:11:03;101525.75;;;17.86;100.00
46955;BME280;32708;51.212;6.788;2022-07-22T05:13:29;101525.88;;;18.18;100.00
46955;BME280;32708;51.212;6.788;2022-07-22T05:15:55;101519.69;;;18.37;100.00
46955;BME280;32708;51.212;6.788;2022-07-22T05:18:22;101529.34;;;17.75;100.00
46955;BME280;32708;51.212;6.788;2022-07-22T05:20:48;101523.34;;;18.13;100.00
46955;BME280;32708;51.212;6.788;2022-07-22T05:23:14;101512.84;;;18.19;100.00
46955;BME280;32708;51.212;6.788;2022-07-22T05:25:41;101525.53;;;18.20;100.00
46955;BME280;32708;51.212;6.788;2022-07-22T05:28:07;101515.41;;;17.83;100.00
46955;BME280;32708;51.212;6.788;2022-07-22T05:30:37;101516.91;;;17.81;100.00
46955;BME280;32708;51.212;6.788;2022-07-22T05:33:06;101506.53;;;17.78;100.00
46955;BME280;32708;51.212;6.788;2022-07-22T05:35:51;101512.63;;;17.83;100.00
46955;BME280;32708;51.212;6.788;2022-07-22T05:38:18;101514.34;;;17.88;100.00
46955;BME280;32708;51.212;6.788;2022-07-22T05:40:45;101516.19;;;18.24;100.00
46955;BME280;32708;51.212;6.788;2022-07-22T05:43:11;101506.25;;;18.07;100.00
46955;BME280;32708;51.212;6.788;2022-07-22T05:45:37;101510.94;;;18.35;100.00
46955;BME280;32708;51.212;6.788;2022-07-22T05:48:04;101507.03;;;18.08;100.00
46955;BME280;32708;51.212;6.788;2022-07-22T05:50:38;101515.06;;;18.13;100.00
46955;BME280;32708;51.212;6.788;2022-07-22T05:53:10;101514.19;;;18.09;100.00
46955;BME280;32708;51.212;6.788;2022-07-22T05:55:36;101512.09;;;18.34;100.00
46955;BME280;32708;51.212;6.788;2022-07-22T05:58:03;101506.72;;;17.97;100.00
46955;BME280;32708;51.212;6.788;2022-07-22T06:00:30;101515.78;;;18.10;100.00
46955;BME280;32708;51.212;6.788;2022-07-22T06:02:57;101506.72;;;18.25;100.00
46955;BME280;32708;51.212;6.788;2022-07-22T06:05:23;101504.78;;;17.85;100.00
46955;BME280;32708;51.212;6.788;2022-07-22T06:07:50;101503.19;;;17.84;100.00
46955;BME280;32708;51.212;6.788;2022-07-22T06:10:28;101506.91;;;17.76;100.00
46955;BME280;32708;51.212;6.788;2022-07-22T06:12:55;101500.31;;;17.93;100.00
46955;BME280;32708;51.212;6.788;2022-07-22T06:15:21;101510.66;;;17.84;100.00
46955;BME280;32708;51.212;6.788;2022-07-22T06:17:51;101517.69;;;17.69;100.00
46955;BME280;32708;51.212;6.788;2022-07-22T06:20:18;101515.41;;;17.83;100.00
46955;BME280;32708;51.212;6.788;2022-07-22T06:22:44;101509.47;;;17.97;100.00
46955;BME280;32708;51.212;6.788;2022-07-22T06:25:11;101510.94;;;17.79;100.00
46955;BME280;32708;51.212;6.788;2022-07-22T06:27:38;101509.50;;;17.85;100.00
46955;BME280;32708;51.212;6.788;2022-07-22T06:30:06;101517.56;;;17.90;100.00
46955;BME280;32708;51.212;6.788;2022-07-22T06:32:32;101515.47;;;17.99;100.00
46955;BME280;32708;51.212;6.788;2022-07-22T06:34:59;101513.78;;;17.70;100.00
46955;BME280;32708;51.212;6.788;2022-07-22T06:37:25;101511.72;;;17.67;100.00
46955;BME280;32708;51.212;6.788;2022-07-22T06:39:52;101512.03;;;17.90;100.00
46955;BME280;32708;51.212;6.788;2022-07-22T06:42:34;101511.41;;;18.09;100.00
46955;BME280;32708;51.212;6.788;2022-07-22T06:45:22;101518.63;;;18.13;100.00
46955;BME280;32708;51.212;6.788;2022-07-22T06:47:48;101512.38;;;18.01;100.00
46955;BME280;32708;51.212;6.788;2022-07-22T06:50:15;101513.25;;;18.33;100.00
46955;BME280;32708;51.212;6.788;2022-07-22T06:52:42;101511.34;;;18.21;100.00
46955;BME280;32708;51.212;6.788;2022-07-22T06:55:10;101505.97;;;18.40;100.00
46955;BME280;32708;51.212;6.788;2022-07-22T06:57:42;101511.09;;;18.26;100.00
46955;BME280;32708;51.212;6.788;2022-07-22T07:00:10;101509.69;;;18.04;100.00
46955;BME280;32708;51.212;6.788;2022-07-22T07:03:00;101509.66;;;18.17;100.00
46955;BME280;32708;51.212;6.788;2022-07-22T07:05:29;101497.31;;;18.42;100.00
46955;BME280;32708;51.212;6.788;2022-07-22T07:07:57;101500.19;;;18.46;100.00
46955;BME280;32708;51.212;6.788;2022-07-22T07:10:23;101505.69;;;18.02;100.00
46955;BME280;32708;51.212;6.788;2022-07-22T07:12:59;101503.94;;;18.09;100.00
46955;BME280;32708;51.212;6.788;2022-07-22T07:15:38;101510.41;;;18.29;100.00
46955;BME280;32708;51.212;6.788;2022-07-22T07:18:07;101509.56;;;18.29;100.00
46955;BME280;32708;51.212;6.788;2022-07-22T07:20:34;101514.66;;;18.27;100.00
46955;BME280;32708;51.212;6.788;2022-07-22T07:23:01;101521.59;;;18.21;100.00
46955;BME280;32708;51.212;6.788;2022-07-22T07:25:29;101506.44;;;18.14;100.00
46955;BME280;32708;51.212;6.788;2022-07-22T07:27:55;101508.47;;;18.46;100.00
46955;BME280;32708;51.212;6.788;2022-07-22T07:30:41;101502.22;;;18.49;100.00
46955;BME280;32708;51.212;6.788;2022-07-22T07:33:10;101498.63;;;18.76;100.00
46955;BME280;32708;51.212;6.788;2022-07-22T07:35:36;101495.66;;;18.53;100.00
46955;BME280;32708;51.212;6.788;2022-07-22T07:38:03;101497.06;;;18.47;100.00
46955;BME280;32708;51.212;6.788;2022-07-22T07:40:32;101506.28;;;18.23;100.00
46955;BME280;32708;51.212;6.788;2022-07-22T07:42:58;101497.78;;;18.16;100.00
46955;BME280;32708;51.212;6.788;2022-07-22T07:45:25;101497.69;;;18.56;100.00
46955;BME280;32708;51.212;6.788;2022-07-22T07:47:51;101493.66;;;18.38;100.00
46955;BME280;32708;51.212;6.788;2022-07-22T07:50:17;101492.53;;;17.99;100.00
46955;BME280;32708;51.212;6.788;2022-07-22T07:52:45;101496.91;;;18.00;100.00
46955;BME280;32708;51.212;6.788;2022-07-22T07:55:15;101495.06;;;18.32;100.00
46955;BME280;32708;51.212;6.788;2022-07-22T07:57:43;101496.00;;;18.52;100.00
46955;BME280;32708;51.212;6.788;2022-07-22T08:00:21;101490.88;;;18.66;100.00
46955;BME280;32708;51.212;6.788;2022-07-22T08:02:48;101493.75;;;18.41;100.00
46955;BME280;32708;51.212;6.788;2022-07-22T08:05:15;101487.09;;;18.58;100.00
46955;BME280;32708;51.212;6.788;2022-07-22T08:07:42;101494.63;;;18.02;100.00
46955;BME280;32708;51.212;6.788;2022-07-22T08:10:09;101489.50;;;18.16;100.00
46955;BME280;32708;51.212;6.788;2022-07-22T08:13:11;101489.94;;;18.18;100.00
46955;BME280;32708;51.212;6.788;2022-07-22T08:15:46;101489.00;;;18.42;100.00
46955;BME280;32708;51.212;6.788;2022-07-22T08:18:20;101487.28;;;18.65;100.00
46955;BME280;32708;51.212;6.788;2022-07-22T08:20:47;101491.28;;;18.52;100.00
46955;BME280;32708;51.212;6.788;2022-07-22T08:23:14;101488.59;;;18.12;100.00
46955;BME280;32708;51.212;6.788;2022-07-22T08:25:43;101486.06;;;18.35;100.00
46955;BME280;32708;51.212;6.788;2022-07-22T08:28:10;101489.84;;;18.58;100.00
46955;BME280;32708;51.212;6.788;2022-07-22T08:30:37;101495.34;;;18.42;100.00
46955;BME280;32708;51.212;6.788;2022-07-22T08:33:03;101500.56;;;18.60;100.00
46955;BME280;32708;51.212;6.788;2022-07-22T08:35:29;101498.34;;;18.65;100.00
46955;BME280;32708;51.212;6.788;2022-07-22T08:37:56;101491.13;;;18.92;100.00
46955;BME280;32708;51.212;6.788;2022-07-22T08:40:24;101506.31;;;18.11;100.00
46955;BME280;32708;51.212;6.788;2022-07-22T08:42:51;101495.72;;;18.57;100.00
46955;BME280;32708;51.212;6.788;2022-07-22T08:45:19;101495.00;;;18.72;100.00
46955;BME280;32708;51.212;6.788;2022-07-22T08:47:51;101507.47;;;18.38;100.00
46955;BME280;32708;51.212;6.788;2022-07-22T08:50:36;101504.72;;;18.97;100.00
46955;BME280;32708;51.212;6.788;2022-07-22T08:53:14;101506.94;;;18.76;100.00
46955;BME280;32708;51.212;6.788;2022-07-22T08:55:45;101500.69;;;19.11;100.00
46955;BME280;32708;51.212;6.788;2022-07-22T08:58:13;101507.22;;;19.03;100.00
46955;BME280;32708;51.212;6.788;2022-07-22T09:00:40;101505.06;;;18.96;100.00
46955;BME280;32708;51.212;6.788;2022-07-22T09:03:25;101503.06;;;19.28;100.00
46955;BME280;32708;51.212;6.788;2022-07-22T09:05:56;101506.31;;;19.30;100.00
46955;BME280;32708;51.212;6.788;2022-07-22T09:08:23;101506.84;;;18.88;100.00
46955;BME280;32708;51.212;6.788;2022-07-22T09:11:24;101507.91;;;19.00;100.00
46955;BME280;32708;51.212;6.788;2022-07-22T09:14:09;101505.63;;;19.02;100.00
46955;BME280;32708;51.212;6.788;2022-07-22T09:17:36;101498.56;;;18.88;100.00
46955;BME280;32708;51.212;6.788;2022-07-22T09:20:42;101506.72;;;18.53;100.00
46955;BME280;32708;51.212;6.788;2022-07-22T09:23:41;101493.09;;;18.76;100.00
46955;BME280;32708;51.212;6.788;2022-07-22T09:26:30;101505.53;;;18.38;100.00
46955;BME280;32708;51.212;6.788;2022-07-22T09:29:19;101493.25;;;18.52;100.00
46955;BME280;32708;51.212;6.788;2022-07-22T09:32:06;101503.31;;;18.44;100.00
46955;BME280;32708;51.212;6.788;2022-07-22T09:34:42;101496.66;;;18.92;100.00
46955;BME280;32708;51.212;6.788;2022-07-22T09:37:18;101500.25;;;18.77;100.00
46955;BME280;32708;51.212;6.788;2022-07-22T09:39:45;101503.38;;;18.91;100.00
46955;BME280;32708;51.212;6.788;2022-07-22T09:42:13;101500.78;;;18.98;100.00
46955;BME280;32708;51.212;6.788;2022-07-22T09:44:42;101510.09;;;18.47;100.00
46955;BME280;32708;51.212;6.788;2022-07-22T09:47:30;101500.06;;;18.86;100.00
46955;BME280;32708;51.212;6.788;2022-07-22T09:50:34;101499.13;;;19.45;100.00
46955;BME280;32708;51.212;6.788;2022-07-22T09:53:26;101496.94;;;19.89;100.00
46955;BME280;32708;51.212;6.788;2022-07-22T09:56:05;101494.69;;;19.24;100.00
46955;BME280;32708;51.212;6.788;2022-07-22T09:58:33;101490.31;;;19.74;100.00
46955;BME280;32708;51.212;6.788;2022-07-22T10:01:05;101475.81;;;19.81;100.00
46955;BME280;32708;51.212;6.788;2022-07-22T10:03:35;101476.09;;;20.15;100.00
46955;BME280;32708;51.212;6.788;2022-07-22T10:06:06;101471.44;;;20.61;100.00
46955;BME280;32708;51.212;6.788;2022-07-22T10:08:34;101462.66;;;20.82;100.00
46955;BME280;32708;51.212;6.788;2022-07-22T10:11:06;101472.44;;;20.30;100.00
46955;BME280;32708;51.212;6.788;2022-07-22T10:13:37;101459.22;;;20.66;100.00
46955;BME280;32708;51.212;6.788;2022-07-22T10:16:06;101460.81;;;20.89;100.00
46955;BME280;32708;51.212;6.788;2022-07-22T10:18:34;101458.06;;;21.16;100.00
46955;BME280;32708;51.212;6.788;2022-07-22T10:21:08;101463.84;;;20.58;100.00
46955;BME280;32708;51.212;6.788;2022-07-22T10:23:36;101456.34;;;21.34;100.00
46955;BME280;32708;51.212;6.788;2022-07-22T10:26:56;101438.94;;;21.67;100.00
46955;BME280;32708;51.212;6.788;2022-07-22T10:29:31;101429.69;;;22.23;100.00
46955;BME280;32708;51.212;6.788;2022-07-22T10:40:15;101416.09;;;21.81;100.00
46955;BME280;32708;51.212;6.788;2022-07-22T10:45:33;101420.31;;;22.42;100.00
46955;BME280;32708;51.212;6.788;2022-07-22T10:48:04;101412.84;;;22.50;100.00
46955;BME280;32708;51.212;6.788;2022-07-22T10:53:11;101415.63;;;22.09;100.00
46955;BME280;32708;51.212;6.788;2022-07-22T11:01:07;101419.31;;;22.61;100.00
46955;BME280;32708;51.212;6.788;2022-07-22T11:03:38;101434.13;;;21.94;100.00
46955;BME280;32708;51.212;6.788;2022-07-22T11:08:45;101424.94;;;22.24;100.00
46955;BME280;32708;51.212;6.788;2022-07-22T11:11:12;101418.91;;;22.59;100.00
46955;BME280;32708;51.212;6.788;2022-07-22T11:13:41;101426.75;;;21.76;100.00
46955;BME280;32708;51.212;6.788;2022-07-22T11:16:17;101410.91;;;23.02;100.00
46955;BME280;32708;51.212;6.788;2022-07-22T11:18:53;101398.91;;;23.71;100.00
46955;BME280;32708;51.212;6.788;2022-07-22T11:21:28;101386.31;;;24.30;100.00
46955;BME280;32708;51.212;6.788;2022-07-22T11:23:59;101384.09;;;23.56;100.00
46955;BME280;32708;51.212;6.788;2022-07-22T11:29:06;101379.09;;;23.94;100.00
46955;BME280;32708;51.212;6.788;2022-07-22T11:31:32;101358.25;;;25.44;100.00
46955;BME280;32708;51.212;6.788;2022-07-22T11:34:11;101363.66;;;25.84;91.68
46955;BME280;32708;51.212;6.788;2022-07-22T11:36:42;101379.19;;;24.43;100.00
46955;BME280;32708;51.212;6.788;2022-07-22T11:39:11;101372.78;;;23.20;100.00
46955;BME280;32708;51.212;6.788;2022-07-22T11:41:39;101376.59;;;22.91;100.00
46955;BME280;32708;51.212;6.788;2022-07-22T11:44:07;101377.19;;;23.28;100.00
46955;BME280;32708;51.212;6.788;2022-07-22T11:46:40;101367.16;;;24.18;100.00
46955;BME280;32708;51.212;6.788;2022-07-22T11:49:09;101364.38;;;24.32;100.00
46955;BME280;32708;51.212;6.788;2022-07-22T11:51:38;101372.34;;;24.09;100.00
46955;BME280;32708;51.212;6.788;2022-07-22T11:54:06;101366.41;;;24.39;100.00
46955;BME280;32708;51.212;6.788;2022-07-22T11:56:34;101385.78;;;22.43;100.00
46955;BME280;32708;51.212;6.788;2022-07-22T11:59:02;101369.59;;;22.63;100.00
46955;BME280;32708;51.212;6.788;2022-07-22T12:01:35;101367.06;;;22.92;100.00
46955;BME280;32708;51.212;6.788;2022-07-22T12:04:10;101360.28;;;22.89;100.00
46955;BME280;32708;51.212;6.788;2022-07-22T12:06:41;101355.25;;;23.13;100.00
46955;BME280;32708;51.212;6.788;2022-07-22T12:09:09;101362.94;;;23.37;100.00
46955;BME280;32708;51.212;6.788;2022-07-22T12:11:43;101349.44;;;23.57;100.00
46955;BME280;32708;51.212;6.788;2022-07-22T12:14:17;101354.59;;;23.48;100.00
46955;BME280;32708;51.212;6.788;2022-07-22T12:19:30;101358.63;;;22.33;100.00
46955;BME280;32708;51.212;6.788;2022-07-22T12:24:38;101337.66;;;24.24;100.00
46955;BME280;32708;51.212;6.788;2022-07-22T12:27:25;101321.66;;;24.92;100.00
46955;BME280;32708;51.212;6.788;2022-07-22T12:29:52;101311.59;;;25.20;97.78
46955;BME280;32708;51.212;6.788;2022-07-22T12:32:26;101307.94;;;25.41;94.33
46955;BME280;32708;51.212;6.788;2022-07-22T12:34:59;101317.25;;;25.06;96.98
46955;BME280;32708;51.212;6.788;2022-07-22T12:37:52;101308.06;;;24.98;94.56
46955;BME280;32708;51.212;6.788;2022-07-22T12:40:22;101311.31;;;24.82;96.37
46955;BME280;32708;51.212;6.788;2022-07-22T12:43:07;101303.88;;;25.49;91.79
46955;BME280;32708;51.212;6.788;2022-07-22T12:45:37;101311.25;;;25.00;95.96
46955;BME280;32708;51.212;6.788;2022-07-22T12:50:42;101311.31;;;24.82;99.94
46955;BME280;32708;51.212;6.788;2022-07-22T12:53:13;101303.88;;;25.52;92.86
46955;BME280;32708;51.212;6.788;2022-07-22T12:55:44;101305.75;;;24.75;98.53
46955;BME280;32708;51.212;6.788;2022-07-22T12:58:12;101316.09;;;23.93;100.00
46955;BME280;32708;51.212;6.788;2022-07-22T13:00:46;101305.38;;;24.55;100.00
46955;BME280;32708;51.212;6.788;2022-07-22T13:03:13;101298.59;;;24.63;99.13
46955;BME280;32708;51.212;6.788;2022-07-22T13:05:40;101286.53;;;24.95;94.81
46955;BME280;32708;51.212;6.788;2022-07-22T13:08:07;101292.44;;;25.29;93.17
46955;BME280;32708;51.212;6.788;2022-07-22T13:10:33;101287.06;;;24.43;98.27
46955;BME280;32708;51.212;6.788;2022-07-22T13:12:59;101285.41;;;24.71;100.00
46955;BME280;32708;51.212;6.788;2022-07-22T13:15:26;101271.81;;;25.75;89.04
46955;BME280;32708;51.212;6.788;2022-07-22T13:17:52;101288.25;;;24.53;97.40
46955;BME280;32708;51.212;6.788;2022-07-22T13:20:19;101273.91;;;25.53;87.38
46955;BME280;32708;51.212;6.788;2022-07-22T13:22:47;101274.16;;;27.38;76.97
46955;BME280;32708;51.212;6.788;2022-07-22T13:25:14;101265.13;;;26.10;76.32
46955;BME280;32708;51.212;6.788;2022-07-22T13:27:41;101255.63;;;27.75;68.39